createdAt,value
2022-10-01T00:02:12.209Z,88.94
2022-10-01T00:04:39.476Z,89.37
2022-10-01T00:07:10.260Z,88.63
2022-10-01T00:09:37.760Z,88.16
2022-10-01T00:12:04.698Z,88.82
2022-10-01T00:14:31.566Z,89.25
2022-10-01T00:16:58.521Z,89.39
2022-10-01T00:19:25.417Z,90.45
2022-10-01T00:21:52.140Z,91.53
2022-10-01T00:24:18.915Z,90.33
2022-10-01T00:26:47.164Z,91.37
2022-10-01T00:29:15.084Z,91.39
2022-10-01T00:31:42.202Z,90.66
2022-10-01T00:34:12.506Z,89.66
2022-10-01T00:36:39.502Z,91.25
2022-10-01T00:39:06.363Z,90.36
2022-10-01T00:41:35.143Z,91.23
2022-10-01T00:44:31.806Z,90.74
2022-10-01T00:47:20.574Z,90.71
2022-10-01T00:49:50.253Z,90.31
2022-10-01T00:52:24.285Z,90.28
2022-10-01T00:55:28.418Z,90.75
2022-10-01T00:57:56.266Z,91.02
2022-10-01T01:00:23.326Z,91.19
2022-10-01T01:02:50.759Z,90.87
2022-10-01T01:05:18.224Z,90.87
2022-10-01T01:07:48.212Z,90.58
2022-10-01T01:10:19.963Z,90.26
2022-10-01T01:13:31.941Z,89.89
2022-10-01T01:15:58.741Z,91.32
2022-10-01T01:18:34.943Z,90.32
2022-10-01T01:21:12.642Z,90.49
2022-10-01T01:23:58.133Z,90.97
2022-10-01T01:26:53.652Z,91.51
2022-10-01T01:29:36.649Z,91.88
2022-10-01T01:32:17.418Z,91.87
2022-10-01T01:34:48.735Z,91.64
2022-10-01T01:37:20.245Z,92.37
2022-10-01T01:39:52.426Z,91.68
2022-10-01T01:42:26.286Z,93.00
2022-10-01T01:44:57.740Z,91.82
2022-10-01T01:47:32.521Z,92.40
2022-10-01T01:50:02.389Z,93.01
2022-10-01T01:52:30.156Z,93.03
2022-10-01T01:54:57.861Z,91.55
2022-10-01T01:57:24.724Z,91.02
2022-10-01T01:59:53.723Z,91.71
2022-10-01T02:02:28.264Z,91.08
2022-10-01T02:04:59.986Z,91.19
2022-10-01T02:07:55.496Z,90.79
2022-10-01T02:10:36.371Z,91.44
2022-10-01T02:13:29.510Z,91.14
2022-10-01T02:16:34.825Z,90.95
2022-10-01T02:19:39.748Z,92.11
2022-10-01T02:22:17.003Z,92.51
2022-10-01T02:24:58.137Z,92.32
2022-10-01T02:27:39.501Z,92.91
2022-10-01T02:30:09.328Z,93.78
2022-10-01T02:32:40.093Z,92.61
2022-10-01T02:35:10.838Z,92.89
2022-10-01T02:37:40.568Z,92.09
2022-10-01T02:40:12.477Z,92.71
2022-10-01T02:42:47.778Z,92.02
2022-10-01T02:45:19.090Z,91.03
2022-10-01T02:48:07.256Z,91.93
2022-10-01T02:50:43.331Z,92.75
2022-10-01T02:53:19.145Z,92.55
2022-10-01T02:55:48.688Z,92.65
2022-10-01T02:58:18.634Z,92.34
2022-10-01T03:00:45.454Z,92.34
2022-10-01T03:03:12.281Z,91.87
2022-10-01T03:05:42.660Z,91.88
2022-10-01T03:08:09.424Z,92.26
2022-10-01T03:10:36.351Z,92.13
2022-10-01T03:13:05.535Z,91.90
2022-10-01T03:15:32.822Z,93.35
2022-10-01T03:17:59.599Z,93.52
2022-10-01T03:20:26.434Z,94.73
2022-10-01T03:22:53.200Z,94.26
2022-10-01T03:25:20.140Z,92.78
2022-10-01T03:27:51.630Z,93.71
2022-10-01T03:30:18.933Z,92.87
2022-10-01T03:32:45.692Z,94.07
2022-10-01T03:35:12.960Z,94.70
2022-10-01T03:37:39.917Z,94.92
2022-10-01T03:40:07.074Z,94.25
2022-10-01T03:42:33.970Z,94.37
2022-10-01T03:45:00.767Z,94.33
2022-10-01T03:47:27.664Z,94.49
2022-10-01T03:49:54.535Z,94.77
2022-10-01T03:52:22.829Z,93.66
2022-10-01T03:54:49.646Z,94.61
2022-10-01T03:57:16.473Z,93.70
2022-10-01T03:59:43.249Z,92.83
2022-10-01T04:02:10.407Z,93.27
2022-10-01T04:04:37.453Z,92.98
2022-10-01T04:07:04.281Z,92.66
2022-10-01T04:09:31.167Z,92.57
2022-10-01T04:11:59.460Z,93.63
2022-10-01T04:14:26.468Z,93.29
2022-10-01T04:16:53.362Z,93.17
2022-10-01T04:19:20.143Z,92.38
2022-10-01T04:21:49.479Z,92.55
2022-10-01T04:24:16.323Z,92.82
2022-10-01T04:26:43.747Z,92.46
2022-10-01T04:29:11.935Z,93.30
2022-10-01T04:31:39.786Z,93.68
2022-10-01T04:34:06.850Z,93.02
2022-10-01T04:36:33.720Z,93.00
2022-10-01T04:39:02.509Z,93.56
2022-10-01T04:41:31.656Z,92.02
2022-10-01T04:44:02.500Z,91.57
2022-10-01T04:46:29.824Z,91.64
2022-10-01T04:48:56.744Z,92.10
2022-10-01T04:51:24.102Z,91.63
2022-10-01T04:53:50.809Z,92.23
2022-10-01T04:56:17.584Z,91.66
2022-10-01T04:58:45.836Z,91.65
2022-10-01T05:01:12.537Z,91.74
2022-10-01T05:03:39.482Z,91.52
2022-10-01T05:06:06.426Z,91.20
2022-10-01T05:08:41.867Z,90.57
2022-10-01T05:11:08.789Z,90.80
2022-10-01T05:13:35.774Z,90.48
2022-10-01T05:16:03.878Z,90.10
2022-10-01T05:18:31.364Z,89.96
2022-10-01T05:20:58.524Z,91.09
2022-10-01T05:23:25.399Z,90.17
2022-10-01T05:25:52.310Z,88.83
2022-10-01T05:28:22.731Z,88.21
2022-10-01T05:30:50.547Z,87.71
2022-10-01T05:33:17.634Z,87.26
2022-10-01T05:35:44.617Z,86.78
2022-10-01T05:38:11.493Z,86.82
2022-10-01T05:40:38.487Z,86.15
2022-10-01T05:43:09.001Z,85.97
2022-10-01T05:45:43.323Z,85.45
2022-10-01T05:48:11.537Z,85.23
2022-10-01T05:50:40.098Z,84.86
2022-10-01T05:53:09.533Z,84.60
2022-10-01T05:55:37.009Z,84.27
2022-10-01T05:58:10.636Z,83.63
2022-10-01T06:00:39.377Z,83.30
2022-10-01T06:03:07.274Z,82.99
2022-10-01T06:05:35.499Z,82.32
2022-10-01T06:08:06.286Z,82.17
2022-10-01T06:10:33.309Z,80.03
2022-10-01T06:13:01.478Z,79.81
2022-10-01T06:15:29.653Z,79.02
2022-10-01T06:17:56.625Z,78.98
2022-10-01T06:20:23.480Z,77.47
2022-10-01T06:22:55.049Z,77.08
2022-10-01T06:25:23.150Z,76.44
2022-10-01T06:27:55.798Z,74.48
2022-10-01T06:30:25.734Z,74.60
2022-10-01T06:33:00.118Z,73.68
2022-10-01T06:35:26.944Z,72.55
2022-10-01T06:37:53.884Z,71.98
2022-10-01T06:40:20.971Z,69.65
2022-10-01T06:42:48.803Z,70.18
2022-10-01T06:45:17.807Z,69.20
2022-10-01T06:47:45.146Z,68.54
2022-10-01T06:50:32.606Z,66.52
2022-10-01T06:53:00.853Z,67.23
2022-10-01T06:55:30.560Z,67.34
2022-10-01T06:58:01.836Z,66.52
2022-10-01T07:00:34.209Z,66.20
2022-10-01T07:03:04.133Z,66.47
2022-10-01T07:05:36.043Z,65.42
2022-10-01T07:08:03.189Z,65.36
2022-10-01T07:10:31.654Z,63.11
2022-10-01T07:13:08.271Z,61.67
2022-10-01T07:15:35.289Z,61.12
2022-10-01T07:18:02.195Z,61.31
2022-10-01T07:20:30.952Z,59.59
2022-10-01T07:22:59.539Z,59.04
2022-10-01T07:25:27.836Z,57.95
2022-10-01T07:28:04.026Z,56.88
2022-10-01T07:30:31.629Z,56.01
2022-10-01T07:32:58.677Z,57.56
2022-10-01T07:35:26.534Z,57.89
2022-10-01T07:37:54.776Z,54.92
2022-10-01T07:40:22.606Z,54.74
2022-10-01T07:42:54.144Z,54.58
2022-10-01T07:45:22.627Z,54.41
2022-10-01T07:47:58.026Z,56.52
2022-10-01T07:50:26.151Z,54.99
2022-10-01T07:52:54.779Z,54.10
2022-10-01T07:55:25.877Z,51.31
2022-10-01T07:57:57.714Z,49.89
2022-10-01T08:00:27.215Z,48.97
2022-10-01T08:02:55.696Z,50.87
2022-10-01T08:05:28.508Z,48.91
2022-10-01T08:08:00.791Z,49.72
2022-10-01T08:10:28.599Z,48.30
2022-10-01T08:13:07.708Z,47.49
2022-10-01T08:15:35.318Z,47.25
2022-10-01T08:18:03.558Z,45.86
2022-10-01T08:20:31.832Z,46.63
2022-10-01T08:23:06.645Z,45.22
2022-10-01T08:25:36.324Z,44.94
2022-10-01T08:28:06.641Z,45.12
2022-10-01T08:30:39.283Z,43.86
2022-10-01T08:33:07.149Z,43.59
2022-10-01T08:35:34.046Z,43.46
2022-10-01T08:38:03.216Z,42.68
2022-10-01T08:40:38.250Z,43.28
2022-10-01T08:43:13.707Z,43.52
2022-10-01T08:45:47.994Z,41.89
2022-10-01T08:48:40.753Z,39.30
2022-10-01T08:51:20.638Z,38.48
2022-10-01T08:54:13.769Z,37.70
2022-10-01T08:56:47.078Z,37.96
2022-10-01T08:59:35.082Z,37.57
2022-10-01T09:02:02.276Z,35.69
2022-10-01T09:04:29.243Z,33.94
2022-10-01T09:07:20.928Z,35.47
2022-10-01T09:10:13.013Z,35.21
2022-10-01T09:12:42.133Z,34.08
2022-10-01T09:15:15.215Z,32.44
2022-10-01T09:18:18.075Z,30.29
2022-10-01T09:20:53.501Z,29.86
2022-10-01T09:23:23.112Z,28.96
2022-10-01T09:25:50.758Z,29.69
2022-10-01T09:28:40.961Z,30.77
2022-10-01T09:31:46.855Z,29.59
2022-10-01T09:34:19.087Z,28.98
2022-10-01T09:37:14.161Z,29.76
2022-10-01T09:39:45.352Z,30.43
2022-10-01T09:42:12.744Z,30.76
2022-10-01T09:44:39.504Z,30.57
2022-10-01T09:47:16.194Z,30.88
2022-10-01T09:49:44.150Z,30.99
2022-10-01T09:52:26.253Z,31.13
2022-10-01T09:55:07.183Z,31.67
2022-10-01T09:57:52.093Z,32.10
2022-10-01T10:00:24.889Z,32.29
2022-10-01T10:02:54.955Z,32.78
2022-10-01T10:05:25.636Z,32.49
2022-10-01T10:08:15.858Z,32.74
2022-10-01T10:11:20.273Z,31.88
2022-10-01T10:13:53.936Z,31.04
2022-10-01T10:16:30.015Z,30.91
2022-10-01T10:19:01.798Z,31.32
2022-10-01T10:21:34.395Z,32.38
2022-10-01T10:24:21.120Z,33.01
2022-10-01T10:26:57.952Z,32.54
2022-10-01T10:29:32.454Z,32.44
2022-10-01T10:32:04.497Z,32.41
2022-10-01T10:34:37.931Z,32.35
2022-10-01T10:37:13.854Z,32.39
2022-10-01T10:39:43.916Z,32.62
2022-10-01T10:42:15.297Z,32.72
2022-10-01T10:44:46.500Z,33.17
2022-10-01T10:47:16.257Z,32.96
2022-10-01T10:49:54.227Z,33.37
2022-10-01T10:52:25.754Z,33.11
2022-10-01T10:54:55.666Z,32.51
2022-10-01T10:57:37.274Z,32.12
2022-10-01T11:00:18.826Z,31.97
2022-10-01T11:03:06.249Z,31.79
2022-10-01T11:05:40.970Z,31.37
2022-10-01T11:08:17.643Z,30.42
2022-10-01T11:11:06.267Z,30.82
2022-10-01T11:13:42.533Z,30.39
2022-10-01T11:16:25.155Z,30.28
2022-10-01T11:19:32.296Z,29.78
2022-10-01T11:22:11.644Z,29.38
2022-10-01T11:25:03.364Z,28.49
2022-10-01T11:27:48.103Z,28.78
2022-10-01T11:30:24.129Z,28.86
2022-10-01T11:32:53.903Z,28.17
2022-10-01T11:35:42.232Z,28.35
2022-10-01T11:38:38.608Z,28.96
2022-10-01T11:41:13.462Z,29.10
2022-10-01T11:43:50.152Z,29.31
2022-10-01T11:46:43.510Z,29.80
2022-10-01T11:49:26.275Z,29.77
2022-10-01T11:52:00.373Z,29.90
2022-10-01T11:54:31.047Z,29.32
2022-10-01T11:57:17.973Z,29.42
2022-10-01T11:59:49.417Z,29.82
2022-10-01T12:02:32.794Z,30.37
2022-10-01T12:07:31.733Z,30.42
2022-10-01T12:10:29.452Z,30.37
2022-10-01T12:13:16.718Z,30.60
2022-10-01T12:16:02.035Z,31.17
2022-10-01T12:18:52.228Z,31.16
2022-10-01T12:21:26.250Z,31.68
2022-10-01T12:24:05.851Z,31.69
2022-10-01T12:27:00.042Z,33.04
2022-10-01T12:29:43.667Z,33.87
2022-10-01T12:32:37.616Z,33.81
2022-10-01T12:35:35.833Z,34.57
2022-10-01T12:38:29.564Z,34.46
2022-10-01T12:41:33.373Z,34.88
2022-10-01T12:44:07.373Z,35.59
2022-10-01T12:47:11.634Z,35.64
2022-10-01T12:49:58.449Z,35.77
2022-10-01T12:52:48.335Z,35.77
2022-10-01T12:55:29.534Z,36.28
2022-10-01T12:58:19.843Z,36.42
2022-10-01T13:01:26.516Z,36.71
2022-10-01T13:04:21.308Z,37.47
2022-10-01T13:07:05.375Z,37.63
2022-10-01T13:09:36.147Z,37.93
2022-10-01T13:12:40.467Z,38.34
2022-10-01T13:15:23.669Z,38.79
2022-10-01T13:18:38.869Z,39.23
2022-10-01T13:21:08.268Z,39.33
2022-10-01T13:23:50.032Z,39.75
2022-10-01T13:26:58.021Z,39.65
2022-10-01T13:29:42.340Z,39.24
2022-10-01T13:32:29.388Z,39.26
2022-10-01T13:35:00.034Z,39.48
2022-10-01T13:37:32.859Z,39.64
2022-10-01T13:40:02.008Z,39.68
2022-10-01T13:42:42.249Z,39.96
2022-10-01T13:45:22.167Z,40.12
2022-10-01T13:47:50.655Z,40.62
2022-10-01T13:50:27.903Z,40.46
2022-10-01T13:53:08.766Z,40.46
2022-10-01T13:55:43.267Z,40.97
2022-10-01T13:58:23.761Z,41.14
2022-10-01T14:00:55.506Z,41.18
2022-10-01T14:03:34.619Z,41.71
2022-10-01T14:06:07.021Z,42.17
2022-10-01T14:08:44.165Z,42.10
2022-10-01T14:11:33.709Z,42.61
2022-10-01T14:14:49.161Z,42.80
2022-10-01T14:17:23.077Z,43.25
2022-10-01T14:19:51.619Z,43.10
2022-10-01T14:22:28.820Z,42.92
2022-10-01T14:25:05.742Z,43.19
2022-10-01T14:28:19.288Z,43.42
2022-10-01T14:31:08.674Z,43.69
2022-10-01T14:33:39.548Z,44.09
2022-10-01T14:36:21.224Z,43.72
2022-10-01T14:38:49.419Z,44.17
2022-10-01T14:41:24.485Z,44.41
2022-10-01T14:44:14.517Z,44.43
2022-10-01T14:46:42.756Z,44.66
2022-10-01T14:49:30.165Z,45.26
2022-10-01T14:52:04.806Z,45.49
2022-10-01T14:54:59.074Z,45.57
2022-10-01T14:57:29.801Z,45.98
2022-10-01T15:00:01.054Z,46.24
2022-10-01T15:02:29.827Z,46.34
2022-10-01T15:04:58.495Z,46.53
2022-10-01T15:07:36.353Z,46.83
2022-10-01T15:10:09.222Z,46.77
2022-10-01T15:12:41.798Z,47.86
2022-10-01T15:15:31.663Z,48.45
2022-10-01T15:18:03.605Z,48.83
2022-10-01T15:20:31.888Z,49.00
2022-10-01T15:23:01.668Z,49.33
2022-10-01T15:25:32.814Z,50.07
2022-10-01T15:28:01.278Z,49.63
2022-10-01T15:30:29.627Z,50.86
2022-10-01T15:32:58.111Z,51.40
2022-10-01T15:35:28.235Z,51.75
2022-10-01T15:38:00.700Z,51.80
2022-10-01T15:40:35.475Z,52.09
2022-10-01T15:43:22.779Z,52.90
2022-10-01T15:46:06.625Z,54.39
2022-10-01T15:48:38.911Z,54.78
2022-10-01T15:51:19.640Z,54.83
2022-10-01T15:53:49.056Z,54.60
2022-10-01T15:56:24.273Z,54.60
2022-10-01T15:58:57.256Z,54.62
2022-10-01T16:01:49.657Z,54.92
2022-10-01T16:04:21.303Z,55.38
2022-10-01T16:06:52.852Z,55.62
2022-10-01T16:09:24.972Z,55.84
2022-10-01T16:12:12.034Z,56.60
2022-10-01T16:14:56.337Z,56.86
2022-10-01T16:17:33.300Z,58.38
2022-10-01T16:20:36.503Z,58.51
2022-10-01T16:23:42.684Z,58.50
2022-10-01T16:26:44.498Z,58.72
2022-10-01T16:29:12.774Z,60.45
2022-10-01T16:31:43.477Z,61.52
2022-10-01T16:34:17.076Z,62.09
2022-10-01T16:36:45.290Z,62.04
2022-10-01T16:39:15.290Z,61.77
2022-10-01T16:41:56.525Z,64.06
2022-10-01T16:44:39.775Z,64.36
2022-10-01T16:47:11.683Z,64.25
2022-10-01T16:49:39.979Z,65.96
2022-10-01T16:52:08.389Z,65.85
2022-10-01T16:54:36.645Z,66.87
2022-10-01T16:57:08.477Z,67.97
2022-10-01T16:59:36.608Z,67.53
2022-10-01T17:02:04.855Z,67.24
2022-10-01T17:04:35.376Z,66.43
2022-10-01T17:07:03.390Z,66.86
2022-10-01T17:09:31.525Z,68.01
2022-10-01T17:12:00.981Z,69.49
2022-10-01T17:14:30.806Z,71.60
2022-10-01T17:17:00.164Z,71.42
2022-10-01T17:19:29.852Z,72.07
2022-10-01T17:21:59.259Z,72.97
2022-10-01T17:24:27.632Z,72.70
2022-10-01T17:26:55.900Z,72.25
2022-10-01T17:29:24.097Z,73.64
2022-10-01T17:31:53.624Z,74.46
2022-10-01T17:34:22.224Z,72.38
2022-10-01T17:36:50.407Z,73.76
2022-10-01T17:39:18.526Z,72.74
2022-10-01T17:41:48.421Z,74.14
2022-10-01T17:44:16.773Z,74.01
2022-10-01T17:46:44.878Z,73.60
2022-10-01T17:49:14.860Z,72.52
2022-10-01T17:51:43.156Z,76.04
2022-10-01T17:54:11.306Z,74.30
2022-10-01T17:56:39.351Z,74.23
2022-10-01T17:59:08.994Z,74.39
2022-10-01T18:01:37.196Z,71.93
2022-10-01T18:04:05.820Z,71.67
2022-10-01T18:06:34.003Z,73.02
2022-10-01T18:09:02.409Z,72.00
2022-10-01T18:11:30.746Z,72.65
2022-10-01T18:13:59.385Z,72.63
2022-10-01T18:16:28.752Z,73.41
2022-10-01T18:21:51.236Z,75.38
2022-10-01T18:24:19.720Z,75.63
2022-10-01T18:26:47.871Z,74.93
2022-10-01T18:29:29.090Z,76.16
2022-10-01T18:32:22.168Z,76.90
2022-10-01T18:35:00.694Z,78.64
2022-10-01T18:37:36.290Z,79.60
2022-10-01T18:40:40.890Z,78.08
2022-10-01T18:43:20.851Z,79.50
2022-10-01T18:46:14.753Z,79.05
2022-10-01T18:49:13.907Z,79.24
2022-10-01T18:51:52.589Z,78.48
2022-10-01T18:54:34.632Z,77.66
2022-10-01T18:57:21.307Z,78.43
2022-10-01T19:00:09.602Z,78.97
2022-10-01T19:03:14.298Z,80.85
2022-10-01T19:06:31.223Z,79.83
2022-10-01T19:09:22.973Z,78.51
2022-10-01T19:12:02.661Z,79.94
2022-10-01T19:14:46.933Z,79.56
2022-10-01T19:17:50.508Z,80.45
2022-10-01T19:20:46.099Z,80.16
2022-10-01T19:23:35.869Z,79.42
2022-10-01T19:26:24.778Z,79.28
2022-10-01T19:29:40.968Z,78.55
2022-10-01T19:32:25.915Z,79.15
2022-10-01T19:35:15.835Z,80.04
2022-10-01T19:37:55.388Z,79.79
2022-10-01T19:40:53.695Z,81.36
2022-10-01T19:43:33.684Z,83.43
2022-10-01T19:46:17.908Z,82.27
2022-10-01T19:49:18.513Z,81.58
2022-10-01T19:51:56.767Z,82.25
2022-10-01T19:54:30.825Z,81.33
2022-10-01T19:57:30.726Z,80.68
2022-10-01T20:00:10.276Z,79.51
2022-10-01T20:02:50.547Z,80.49
2022-10-01T20:05:28.489Z,79.54
2022-10-01T20:08:30.188Z,80.35
2022-10-01T20:11:15.325Z,81.68
2022-10-01T20:13:53.024Z,79.84
2022-10-01T20:16:36.502Z,80.03
2022-10-01T20:19:14.032Z,81.33
2022-10-01T20:21:58.593Z,81.72
2022-10-01T20:24:42.058Z,82.43
2022-10-01T20:27:21.246Z,82.51
2022-10-01T20:30:12.331Z,81.59
2022-10-01T20:32:49.339Z,83.39
2022-10-01T20:35:32.478Z,83.12
2022-10-01T20:38:23.107Z,81.59
2022-10-01T20:40:57.786Z,82.28
2022-10-01T20:43:44.847Z,83.20
2022-10-01T20:46:40.206Z,83.32
2022-10-01T20:49:23.345Z,83.40
2022-10-01T20:52:10.927Z,83.64
2022-10-01T20:54:52.182Z,81.98
2022-10-01T20:57:39.845Z,83.48
2022-10-01T21:00:19.370Z,82.56
2022-10-01T21:02:54.938Z,81.89
2022-10-01T21:05:41.274Z,82.63
2022-10-01T21:08:38.277Z,83.38
2022-10-01T21:11:45.530Z,82.83
2022-10-01T21:14:25.287Z,84.23
2022-10-01T21:17:23.587Z,84.11
2022-10-01T21:20:27.708Z,85.06
2022-10-01T21:23:22.193Z,84.59
2022-10-01T21:26:26.920Z,83.94
2022-10-01T21:30:15.264Z,84.68
2022-10-01T21:33:03.448Z,85.47
2022-10-01T21:36:15.617Z,85.10
2022-10-01T21:38:49.421Z,84.34
2022-10-01T21:41:48.380Z,84.13
2022-10-01T21:44:59.401Z,84.27
2022-10-01T21:48:00.039Z,84.39
2022-10-01T21:51:33.896Z,85.34
2022-10-01T21:54:40.820Z,86.41
2022-10-01T21:57:48.357Z,85.48
2022-10-01T22:00:23.187Z,85.14
2022-10-01T22:02:53.974Z,84.68
2022-10-01T22:05:41.171Z,84.38
2022-10-01T22:08:24.517Z,84.48
2022-10-01T22:11:00.198Z,84.54
2022-10-01T22:13:33.185Z,83.86
2022-10-01T22:16:13.994Z,84.17
2022-10-01T22:18:49.140Z,85.70
2022-10-01T22:21:29.311Z,85.23
2022-10-01T22:24:06.996Z,85.13
2022-10-01T22:26:40.468Z,84.40
2022-10-01T22:29:16.609Z,86.13
2022-10-01T22:31:47.635Z,86.85
2022-10-01T22:34:22.808Z,87.37
2022-10-01T22:36:54.800Z,86.67
2022-10-01T22:39:31.027Z,86.66
2022-10-01T22:42:15.523Z,87.63
2022-10-01T22:44:44.072Z,88.02
2022-10-01T22:47:46.071Z,87.30
2022-10-01T22:50:39.333Z,88.57
2022-10-01T22:53:25.657Z,88.79
2022-10-01T22:55:56.031Z,87.51
2022-10-01T22:58:57.915Z,87.43
2022-10-01T23:01:56.570Z,87.10
2022-10-01T23:04:59.596Z,86.74
2022-10-01T23:07:46.697Z,86.78
2022-10-01T23:10:49.200Z,87.91
2022-10-01T23:13:28.983Z,88.83
2022-10-01T23:16:31.041Z,88.64
2022-10-01T23:19:11.319Z,88.86
2022-10-01T23:22:06.897Z,88.75
2022-10-01T23:24:50.181Z,89.89
2022-10-01T23:27:43.707Z,89.80
2022-10-01T23:30:15.888Z,90.11
2022-10-01T23:33:02.527Z,89.84
2022-10-01T23:36:13.883Z,89.32
2022-10-01T23:38:57.468Z,89.00
2022-10-01T23:41:40.302Z,89.48
2022-10-01T23:44:16.414Z,89.80
2022-10-01T23:46:48.083Z,91.72
2022-10-01T23:49:19.278Z,91.14
2022-10-01T23:51:59.109Z,92.10
2022-10-01T23:54:43.914Z,91.33
2022-10-01T23:57:24.490Z,91.14
2022-10-01T23:59:58.641Z,90.87
